Time;durP1;ratioP1;P1;durP2;ratioP2;P2;SDS_P1;SDS_P2;PMS_P1;PMS_P2;Temp;Humidity;BMP_temperature;BMP_pressure;BME280_temperature;BME280_humidity;BME280_pressure;Samples;Min_cycle;Max_cycle;Signal;HPM_P1;HPM_P2
2021/06/23 03:31:36;;;;;;;6.10;4.90;;;;;;;22.21;63.55;98772.69;7852990;23;20254;-84
2021/06/23 03:34:58;;;;;;;6.67;5.50;;;;;;;21.74;65.22;98794.25;6984255;28;20209;-83
2021/06/23 03:38:21;;;;;;;6.43;5.57;;;;;;;21.98;64.85;98767.00;6986380;28;20585;-82
2021/06/23 03:41:44;;;;;;;5.13;4.60;;;;;;;22.54;63.39;98772.03;6982804;28;20235;-83
2021/06/23 03:45:07;;;;;;;5.43;4.43;;;;;;;22.19;63.87;98768.59;7037969;23;20235;-86
2021/06/23 03:48:32;;;;;;;5.00;4.60;;;;;;;22.60;63.27;98803.06;7031499;28;20218;-87
2021/06/23 03:51:56;;;;;;;5.27;4.77;;;;;;;22.06;62.42;98717.81;6983919;28;20201;-86
2021/06/23 03:55:20;;;;;;;8.50;5.67;;;;;;;21.89;64.04;98799.69;7021176;28;20234;-87
2021/06/23 03:58:42;;;;;;;7.07;5.23;;;;;;;22.02;64.77;98804.59;7022475;28;20226;-87
2021/06/23 04:02:04;;;;;;;5.47;5.07;;;;;;;21.87;64.53;98779.09;7004398;28;20280;-87
2021/06/23 04:05:27;;;;;;;8.00;4.70;;;;;;;22.00;64.48;98797.72;7004004;28;20218;-87
2021/06/23 04:08:49;;;;;;;5.93;4.63;;;;;;;22.04;64.59;98801.59;7004057;28;20205;-86
2021/06/23 04:12:12;;;;;;;5.47;4.47;;;;;;;22.45;63.61;98803.13;7003450;28;20666;-86
2021/06/23 04:15:33;;;;;;;5.10;4.13;;;;;;;22.65;62.32;98808.53;7003499;28;20228;-85
2021/06/23 04:18:56;;;;;;;6.93;4.50;;;;;;;22.54;62.15;98815.19;7010689;28;20243;-86
2021/06/23 04:22:19;;;;;;;3.90;3.43;;;;;;;22.39;61.92;98807.78;7002865;28;20196;-87
2021/06/23 04:25:40;;;;;;;5.73;3.90;;;;;;;21.47;62.30;98708.63;7002739;28;20228;-87
2021/06/23 04:29:02;;;;;;;7.63;4.40;;;;;;;21.76;63.70;98814.00;7014908;28;20197;-87
2021/06/23 04:32:24;;;;;;;4.70;4.27;;;;;;;21.67;64.35;98818.38;7030230;28;20201;-87
2021/06/23 04:35:47;;;;;;;3.83;3.53;;;;;;;21.99;63.71;98796.94;7027521;28;20222;-87
2021/06/23 04:39:10;;;;;;;5.97;3.80;;;;;;;22.19;63.29;98796.84;7027824;28;20226;-87
2021/06/23 04:42:32;;;;;;;4.33;4.03;;;;;;;22.20;63.09;98790.25;6998482;28;20209;-88
2021/06/23 04:45:53;;;;;;;4.07;3.20;;;;;;;22.47;62.30;98788.00;6999387;28;20237;-88
2021/06/23 04:49:15;;;;;;;4.00;3.70;;;;;;;22.52;62.14;98798.97;6998541;28;20213;-87
2021/06/23 04:52:37;;;;;;;3.70;3.20;;;;;;;22.75;61.55;98801.06;6998513;28;20214;-89
2021/06/23 04:56:00;;;;;;;6.03;3.20;;;;;;;23.05;60.75;98750.53;6999003;28;20699;-89
2021/06/23 04:59:22;;;;;;;3.70;3.40;;;;;;;23.31;60.13;98774.81;6998712;28;20725;-90
2021/06/23 05:02:44;;;;;;;4.00;3.43;;;;;;;23.70;58.59;98775.59;6978254;28;20204;-89
2021/06/23 05:06:06;;;;;;;3.10;2.90;;;;;;;23.15;58.94;98729.28;6988542;28;20226;-90
2021/06/23 05:09:27;;;;;;;3.87;3.40;;;;;;;22.65;61.78;98814.84;6971323;28;20211;-90
2021/06/23 05:12:50;;;;;;;3.77;3.47;;;;;;;23.19;61.40;98803.84;6971445;28;20683;-90
2021/06/23 05:16:12;;;;;;;4.57;4.17;;;;;;;23.27;59.27;98712.41;6973484;28;20231;-89
2021/06/23 05:19:36;;;;;;;4.00;3.70;;;;;;;23.96;57.96;98767.91;6975081;28;20571;-88
2021/06/23 05:22:58;;;;;;;5.13;3.50;;;;;;;24.28;59.10;98814.94;6975189;28;20199;-90
2021/06/23 05:26:20;;;;;;;3.30;3.00;;;;;;;24.50;56.89;98762.84;7030871;28;20221;-90
2021/06/23 05:29:43;;;;;;;4.20;3.80;;;;;;;24.70;56.20;98799.28;7011630;28;20218;-90
2021/06/23 05:33:05;;;;;;;3.83;2.97;;;;;;;25.00;56.39;98811.81;7002571;28;20816;-90
2021/06/23 05:36:27;;;;;;;3.30;3.07;;;;;;;25.20;56.17;98855.69;7003581;28;20232;-90
2021/06/23 05:39:48;;;;;;;3.50;3.20;;;;;;;25.39;54.88;98796.63;7012930;28;20696;-90
2021/06/23 05:43:10;;;;;;;4.83;3.30;;;;;;;25.98;51.84;98779.31;7002314;28;20209;-89
2021/06/23 05:46:33;;;;;;;5.40;3.30;;;;;;;26.42;50.01;98791.41;7017238;28;20698;-89
2021/06/23 05:49:55;;;;;;;3.60;2.60;;;;;;;26.85;51.10;98858.31;7006879;28;20200;-89
2021/06/23 05:53:17;;;;;;;3.73;2.80;;;;;;;26.22;50.39;98819.47;7011508;28;20212;-89
2021/06/23 05:56:38;;;;;;;3.10;2.90;;;;;;;26.60;51.96;98859.66;7025200;28;20217;-89
2021/06/23 06:00:00;;;;;;;2.50;2.40;;;;;;;27.05;50.41;98832.94;7032366;28;20661;-87
2021/06/23 06:03:23;;;;;;;2.30;2.07;;;;;;;27.02;50.84;98859.31;7033074;28;20220;-90
2021/06/23 06:06:45;;;;;;;2.93;2.17;;;;;;;26.97;49.31;98867.75;7033712;28;20224;-88
2021/06/23 06:10:07;;;;;;;2.27;2.03;;;;;;;27.25;48.71;98863.78;7034591;28;20216;-88
2021/06/23 06:13:29;;;;;;;1.80;1.50;;;;;;;26.81;48.40;98851.75;7034115;28;20218;-89
2021/06/23 06:16:51;;;;;;;2.40;1.60;;;;;;;26.54;48.62;98866.41;7035328;28;20228;-88
2021/06/23 06:20:15;;;;;;;2.10;1.77;;;;;;;27.90;45.53;98866.97;7037420;28;20205;-87
2021/06/23 06:23:37;;;;;;;1.93;1.60;;;;;;;27.35;44.59;98851.66;7036074;28;20207;-90
2021/06/23 06:26:58;;;;;;;3.40;1.50;;;;;;;25.68;48.11;98848.88;7035487;28;20226;-90
2021/06/23 06:30:23;;;;;;;1.37;1.37;;;;;;;27.27;45.61;98867.09;7035225;28;20201;-89
2021/06/23 06:33:44;;;;;;;1.23;1.13;;;;;;;27.40;45.37;98859.84;7043431;28;20236;-89
2021/06/23 06:37:07;;;;;;;1.63;1.50;;;;;;;26.75;46.02;98794.88;7043902;28;20254;-89
2021/06/23 06:40:29;;;;;;;2.50;1.50;;;;;;;27.18;46.28;98876.44;7044233;28;20211;-89
2021/06/23 06:43:51;;;;;;;2.60;1.80;;;;;;;27.02;47.19;98884.22;7034008;28;20204;-90
2021/06/23 06:47:12;;;;;;;2.23;1.70;;;;;;;26.71;46.71;98802.19;7017559;28;20237;-90
2021/06/23 06:50:34;;;;;;;2.07;1.60;;;;;;;26.85;47.33;98844.47;7017982;28;20202;-88
2021/06/23 06:53:57;;;;;;;1.40;1.30;;;;;;;26.52;47.08;98796.72;7017881;28;20205;-88
2021/06/23 06:57:19;;;;;;;1.83;1.47;;;;;;;27.01;46.75;98871.50;7017293;28;20229;-89
2021/06/23 07:00:41;;;;;;;1.33;1.23;;;;;;;26.39;47.30;98863.94;7016022;28;20212;-89
2021/06/23 07:04:04;;;;;;;1.80;1.63;;;;;;;26.38;47.18;98862.28;7015960;28;20210;-89
2021/06/23 07:07:26;;;;;;;2.27;1.30;;;;;;;27.47;45.38;98847.22;7024003;28;20212;-88
2021/06/23 07:10:49;;;;;;;1.37;1.30;;;;;;;28.54;43.44;98860.84;7029473;28;20205;-89
2021/06/23 07:14:11;;;;;;;1.40;1.30;;;;;;;28.79;41.32;98896.19;7025803;28;20199;-88
2021/06/23 07:17:33;;;;;;;4.20;2.00;;;;;;;29.04;42.99;98889.94;7031046;28;20227;-88
2021/06/23 07:20:55;;;;;;;1.43;1.40;;;;;;;26.35;47.39;98824.19;7032260;28;20258;-88
2021/06/23 07:24:18;;;;;;;2.47;1.63;;;;;;;27.94;46.39;98879.06;7012669;28;21529;-90
2021/06/23 07:27:41;;;;;;;2.93;2.50;;;;;;;27.04;49.54;98886.69;7014050;28;20287;-90
2021/06/23 07:31:06;;;;;;;3.20;2.30;;;;;;;28.27;47.03;98906.22;7015739;28;20531;-90
2021/06/23 07:38:13;;;;;;;3.50;1.90;;;;;;;28.07;46.69;98850.47;6971458;28;20288;-90
2021/06/23 07:41:35;;;;;;;3.77;2.07;;;;;;;27.43;46.00;98801.09;7005503;28;20185;-90
2021/06/23 07:45:00;;;;;;;2.47;2.03;;;;;;;26.54;48.52;98833.22;7005321;28;20711;-90
2021/06/23 07:48:22;;;;;;;2.50;2.27;;;;;;;27.73;45.97;98872.38;7004305;28;20235;-88
2021/06/23 07:51:51;;;;;;;2.00;1.83;;;;;;;26.87;46.48;98890.09;7003984;28;20205;-89
2021/06/23 07:55:41;;;;;;;3.30;1.73;;;;;;;27.85;44.84;98880.97;7004596;28;20234;-90
2021/06/23 08:10:03;;;;;;;1.77;1.50;;;;;;;29.21;41.29;98876.91;7007645;28;20233;-90
2021/06/23 08:13:24;;;;;;;2.40;1.40;;;;;;;27.76;43.68;98897.50;7006181;28;20673;-90
2021/06/23 08:16:48;;;;;;;1.90;1.60;;;;;;;28.68;41.24;98884.56;7024197;28;20227;-88
2021/06/23 08:20:12;;;;;;;1.93;1.50;;;;;;;28.96;40.76;98874.09;7032752;28;20291;-90
2021/06/23 08:23:34;;;;;;;2.13;1.90;;;;;;;29.48;41.29;98870.25;7022525;28;20209;-90
2021/06/23 08:26:56;;;;;;;2.00;1.90;;;;;;;28.61;41.54;98822.34;7003983;28;20582;-91
2021/06/23 08:30:19;;;;;;;1.83;1.73;;;;;;;28.58;41.27;98886.78;7003254;28;20214;-90
2021/06/23 08:33:41;;;;;;;3.43;1.77;;;;;;;29.06;40.89;98866.25;7014243;28;20558;-90
2021/06/23 08:37:04;;;;;;;1.33;1.23;;;;;;;29.12;40.92;98876.06;7005310;28;20229;-90
2021/06/23 08:40:26;;;;;;;2.70;1.70;;;;;;;26.90;44.97;98834.09;7004861;28;20229;-90
2021/06/23 08:43:48;;;;;;;2.00;1.80;;;;;;;28.52;41.80;98840.91;7005542;28;20210;-88
2021/06/23 08:47:09;;;;;;;1.70;1.60;;;;;;;27.74;43.24;98801.94;7021634;28;20246;-87
2021/06/23 08:50:31;;;;;;;1.50;1.40;;;;;;;29.27;41.60;98867.28;7031194;28;20193;-88
2021/06/23 08:53:54;;;;;;;1.40;1.30;;;;;;;30.17;39.05;98794.81;7026895;28;20213;-90
2021/06/23 08:57:16;;;;;;;1.50;1.40;;;;;;;29.61;37.61;98797.03;7005704;28;20232;-90
2021/06/23 09:00:37;;;;;;;1.77;1.33;;;;;;;28.70;40.91;98779.59;7004275;28;20311;-90
2021/06/23 09:04:00;;;;;;;1.73;1.40;;;;;;;27.36;41.90;98807.06;7018296;28;20573;-89
2021/06/23 09:07:36;;;;;;;1.20;1.20;;;;;;;27.93;41.19;98770.16;7015631;28;20347;-90
2021/06/23 09:11:00;;;;;;;2.73;1.13;;;;;;;29.24;39.61;98797.69;7003091;28;20196;-90
2021/06/23 09:14:22;;;;;;;1.40;1.30;;;;;;;30.15;39.44;98849.97;7003512;28;20233;-90
2021/06/23 09:17:44;;;;;;;2.50;1.10;;;;;;;30.05;37.75;98794.66;7004761;28;20659;-90
2021/06/23 09:21:07;;;;;;;1.13;1.10;;;;;;;29.82;37.79;98815.47;7006587;28;20212;-87
2021/06/23 09:24:37;;;;;;;1.23;1.10;;;;;;;28.25;39.19;98799.50;7006721;28;20222;-89
2021/06/23 09:28:01;;;;;;;0.90;0.90;;;;;;;28.44;40.44;98842.53;7002695;28;20801;-89
2021/06/23 09:31:23;;;;;;;1.40;1.30;;;;;;;29.89;38.25;98789.97;6980163;28;20218;-90
2021/06/23 09:34:46;;;;;;;1.20;1.20;;;;;;;29.09;36.56;98770.38;7004402;28;20218;-89
2021/06/23 09:38:08;;;;;;;1.20;1.20;;;;;;;29.63;36.95;98819.75;7017691;28;20718;-89
2021/06/23 09:41:32;;;;;;;1.10;1.00;;;;;;;29.93;36.67;98852.09;7006181;28;20213;-88
2021/06/23 09:45:07;;;;;;;1.27;1.03;;;;;;;30.44;37.03;98840.84;7007724;28;20287;-88
2021/06/23 09:48:28;;;;;;;1.37;1.20;;;;;;;29.85;36.54;98828.69;6989291;28;20192;-88
2021/06/23 09:51:51;;;;;;;1.03;0.90;;;;;;;28.09;38.29;98843.47;7007179;28;20208;-89
